Terminal Aerodrome Forecast
Issued by NWS North Platte, NE

Home | Current Version | Previous Version | Graphics & Text | Print | Product List | Glossary On
Versions: 1 2 3 4 5 6 7 8 9 10 11
521
FTUS43 KLBF 231720
TAFVTN
TAF
KVTN 231720Z 2318/2418 26012KT P6SM FEW250
     FM232000 31014G20KT P6SM FEW250
     FM240000 35010KT P6SM FEW250
     FM241200 02008KT P6SM SCT250=

USA.gov is the U.S. government's official web portal to all federal, state and local government web resources and services.